sensor_id;sensor_type;location;lat;lon;timestamp;P1;durP1;ratioP1;P2;durP2;ratioP2
25846;SDS011;13676;50.168;8.568;2022-12-15T00:02:15;29.27;;;15.07;;
25846;SDS011;13676;50.168;8.568;2022-12-15T00:04:59;25.67;;;14.05;;
25846;SDS011;13676;50.168;8.568;2022-12-15T00:07:43;28.20;;;14.77;;
25846;SDS011;13676;50.168;8.568;2022-12-15T00:10:27;25.30;;;13.30;;
25846;SDS011;13676;50.168;8.568;2022-12-15T00:13:11;27.80;;;15.00;;
25846;SDS011;13676;50.168;8.568;2022-12-15T00:15:55;33.95;;;16.05;;
25846;SDS011;13676;50.168;8.568;2022-12-15T00:18:39;27.98;;;14.60;;
25846;SDS011;13676;50.168;8.568;2022-12-15T00:21:23;23.70;;;13.75;;
25846;SDS011;13676;50.168;8.568;2022-12-15T00:24:07;24.98;;;14.05;;
25846;SDS011;13676;50.168;8.568;2022-12-15T00:26:51;22.33;;;13.43;;
25846;SDS011;13676;50.168;8.568;2022-12-15T00:29:35;26.33;;;13.77;;
25846;SDS011;13676;50.168;8.568;2022-12-15T00:32:19;25.35;;;13.32;;
25846;SDS011;13676;50.168;8.568;2022-12-15T00:35:02;23.23;;;13.38;;
25846;SDS011;13676;50.168;8.568;2022-12-15T00:37:47;24.35;;;13.75;;
25846;SDS011;13676;50.168;8.568;2022-12-15T00:40:30;31.13;;;16.25;;
25846;SDS011;13676;50.168;8.568;2022-12-15T00:42:56;26.23;;;13.73;;
25846;SDS011;13676;50.168;8.568;2022-12-15T00:45:21;27.38;;;14.25;;
25846;SDS011;13676;50.168;8.568;2022-12-15T00:48:06;23.10;;;12.63;;
25846;SDS011;13676;50.168;8.568;2022-12-15T00:50:32;23.52;;;14.15;;
25846;SDS011;13676;50.168;8.568;2022-12-15T00:53:16;23.35;;;13.90;;
25846;SDS011;13676;50.168;8.568;2022-12-15T00:56:00;26.90;;;14.23;;
25846;SDS011;13676;50.168;8.568;2022-12-15T00:58:44;27.27;;;14.57;;
25846;SDS011;13676;50.168;8.568;2022-12-15T01:01:28;25.33;;;13.88;;
25846;SDS011;13676;50.168;8.568;2022-12-15T01:04:12;29.88;;;15.90;;
25846;SDS011;13676;50.168;8.568;2022-12-15T01:06:56;24.60;;;13.82;;
25846;SDS011;13676;50.168;8.568;2022-12-15T01:09:40;26.27;;;14.43;;
25846;SDS011;13676;50.168;8.568;2022-12-15T01:12:23;20.70;;;11.60;;
25846;SDS011;13676;50.168;8.568;2022-12-15T01:15:08;23.98;;;12.77;;
25846;SDS011;13676;50.168;8.568;2022-12-15T01:17:52;21.90;;;12.73;;
25846;SDS011;13676;50.168;8.568;2022-12-15T01:20:36;25.17;;;12.77;;
25846;SDS011;13676;50.168;8.568;2022-12-15T01:23:01;20.23;;;12.55;;
25846;SDS011;13676;50.168;8.568;2022-12-15T01:25:27;20.85;;;11.70;;
25846;SDS011;13676;50.168;8.568;2022-12-15T01:27:53;23.88;;;13.18;;
25846;SDS011;13676;50.168;8.568;2022-12-15T01:30:20;23.73;;;12.30;;
25846;SDS011;13676;50.168;8.568;2022-12-15T01:32:47;21.88;;;11.55;;
25846;SDS011;13676;50.168;8.568;2022-12-15T01:35:12;19.08;;;10.85;;
25846;SDS011;13676;50.168;8.568;2022-12-15T01:37:38;22.00;;;11.23;;
25846;SDS011;13676;50.168;8.568;2022-12-15T01:40:04;21.38;;;11.30;;
25846;SDS011;13676;50.168;8.568;2022-12-15T01:42:49;17.75;;;9.82;;
25846;SDS011;13676;50.168;8.568;2022-12-15T01:48:04;18.88;;;10.23;;
25846;SDS011;13676;50.168;8.568;2022-12-15T01:50:33;16.05;;;9.68;;
25846;SDS011;13676;50.168;8.568;2022-12-15T01:53:02;23.63;;;12.02;;
25846;SDS011;13676;50.168;8.568;2022-12-15T01:55:27;20.15;;;10.85;;
25846;SDS011;13676;50.168;8.568;2022-12-15T01:57:55;20.47;;;11.23;;
25846;SDS011;13676;50.168;8.568;2022-12-15T02:00:24;20.98;;;12.27;;
25846;SDS011;13676;50.168;8.568;2022-12-15T02:02:50;22.08;;;11.75;;
25846;SDS011;13676;50.168;8.568;2022-12-15T02:05:15;20.45;;;10.80;;
25846;SDS011;13676;50.168;8.568;2022-12-15T02:07:41;19.17;;;9.85;;
25846;SDS011;13676;50.168;8.568;2022-12-15T02:10:07;23.40;;;10.50;;
25846;SDS011;13676;50.168;8.568;2022-12-15T02:15:37;20.00;;;10.45;;
25846;SDS011;13676;50.168;8.568;2022-12-15T02:20:52;23.20;;;11.30;;
25846;SDS011;13676;50.168;8.568;2022-12-15T02:32:36;20.98;;;10.13;;
25846;SDS011;13676;50.168;8.568;2022-12-15T02:34:44;20.92;;;10.45;;
25846;SDS011;13676;50.168;8.568;2022-12-15T02:37:14;15.60;;;9.93;;
25846;SDS011;13676;50.168;8.568;2022-12-15T02:39:41;22.45;;;11.15;;
25846;SDS011;13676;50.168;8.568;2022-12-15T02:42:08;20.67;;;10.80;;
25846;SDS011;13676;50.168;8.568;2022-12-15T02:44:35;20.20;;;10.52;;
25846;SDS011;13676;50.168;8.568;2022-12-15T02:50:01;17.23;;;10.00;;
25846;SDS011;13676;50.168;8.568;2022-12-15T03:03:03;22.63;;;11.57;;
25846;SDS011;13676;50.168;8.568;2022-12-15T03:05:29;21.40;;;11.95;;
25846;SDS011;13676;50.168;8.568;2022-12-15T03:07:55;18.65;;;11.52;;
25846;SDS011;13676;50.168;8.568;2022-12-15T03:10:22;23.50;;;12.20;;
25846;SDS011;13676;50.168;8.568;2022-12-15T03:12:48;18.23;;;10.93;;
25846;SDS011;13676;50.168;8.568;2022-12-15T03:15:17;22.05;;;11.40;;
25846;SDS011;13676;50.168;8.568;2022-12-15T03:17:42;22.38;;;12.52;;
25846;SDS011;13676;50.168;8.568;2022-12-15T03:20:08;22.10;;;12.00;;
25846;SDS011;13676;50.168;8.568;2022-12-15T03:22:34;19.98;;;11.15;;
25846;SDS011;13676;50.168;8.568;2022-12-15T03:25:00;21.27;;;11.43;;
25846;SDS011;13676;50.168;8.568;2022-12-15T03:27:26;21.10;;;11.88;;
25846;SDS011;13676;50.168;8.568;2022-12-15T03:29:51;20.52;;;11.95;;
25846;SDS011;13676;50.168;8.568;2022-12-15T03:32:16;23.35;;;12.13;;
25846;SDS011;13676;50.168;8.568;2022-12-15T03:34:42;22.75;;;12.23;;
25846;SDS011;13676;50.168;8.568;2022-12-15T03:37:07;17.30;;;10.52;;
25846;SDS011;13676;50.168;8.568;2022-12-15T03:39:33;20.63;;;11.90;;
25846;SDS011;13676;50.168;8.568;2022-12-15T03:41:58;18.50;;;10.73;;
25846;SDS011;13676;50.168;8.568;2022-12-15T03:44:23;21.67;;;11.88;;
25846;SDS011;13676;50.168;8.568;2022-12-15T03:46:49;22.75;;;11.80;;
25846;SDS011;13676;50.168;8.568;2022-12-15T03:49:14;21.70;;;12.38;;
25846;SDS011;13676;50.168;8.568;2022-12-15T03:51:39;18.30;;;11.45;;
25846;SDS011;13676;50.168;8.568;2022-12-15T03:54:05;22.58;;;12.13;;
25846;SDS011;13676;50.168;8.568;2022-12-15T03:56:31;24.52;;;12.25;;
25846;SDS011;13676;50.168;8.568;2022-12-15T03:58:56;22.77;;;11.55;;
25846;SDS011;13676;50.168;8.568;2022-12-15T04:01:26;21.25;;;11.60;;
25846;SDS011;13676;50.168;8.568;2022-12-15T04:03:53;22.80;;;11.32;;
25846;SDS011;13676;50.168;8.568;2022-12-15T04:06:18;18.77;;;11.50;;
25846;SDS011;13676;50.168;8.568;2022-12-15T04:08:43;19.98;;;11.07;;
25846;SDS011;13676;50.168;8.568;2022-12-15T04:11:09;22.00;;;11.45;;
25846;SDS011;13676;50.168;8.568;2022-12-15T04:13:34;20.05;;;10.95;;
25846;SDS011;13676;50.168;8.568;2022-12-15T04:16:00;21.67;;;12.30;;
25846;SDS011;13676;50.168;8.568;2022-12-15T04:18:26;27.20;;;15.25;;
25846;SDS011;13676;50.168;8.568;2022-12-15T04:20:52;29.70;;;14.93;;
25846;SDS011;13676;50.168;8.568;2022-12-15T04:23:18;25.42;;;14.65;;
25846;SDS011;13676;50.168;8.568;2022-12-15T04:25:43;28.80;;;15.18;;
25846;SDS011;13676;50.168;8.568;2022-12-15T04:28:27;26.90;;;15.45;;
25846;SDS011;13676;50.168;8.568;2022-12-15T04:31:12;24.52;;;14.32;;
25846;SDS011;13676;50.168;8.568;2022-12-15T04:33:58;28.60;;;14.85;;
25846;SDS011;13676;50.168;8.568;2022-12-15T04:36:45;29.30;;;15.60;;
25846;SDS011;13676;50.168;8.568;2022-12-15T04:39:31;27.83;;;14.60;;
25846;SDS011;13676;50.168;8.568;2022-12-15T04:42:17;26.80;;;14.77;;
25846;SDS011;13676;50.168;8.568;2022-12-15T04:45:03;25.35;;;13.95;;
25846;SDS011;13676;50.168;8.568;2022-12-15T04:47:47;27.00;;;14.43;;
25846;SDS011;13676;50.168;8.568;2022-12-15T04:50:31;30.67;;;14.65;;
25846;SDS011;13676;50.168;8.568;2022-12-15T04:53:16;25.33;;;13.80;;
25846;SDS011;13676;50.168;8.568;2022-12-15T04:56:00;21.10;;;12.48;;
25846;SDS011;13676;50.168;8.568;2022-12-15T04:58:45;27.58;;;14.13;;
25846;SDS011;13676;50.168;8.568;2022-12-15T05:01:29;24.60;;;13.75;;
25846;SDS011;13676;50.168;8.568;2022-12-15T05:04:13;21.08;;;12.35;;
25846;SDS011;13676;50.168;8.568;2022-12-15T05:06:57;22.27;;;12.73;;
25846;SDS011;13676;50.168;8.568;2022-12-15T05:09:41;25.30;;;13.60;;
25846;SDS011;13676;50.168;8.568;2022-12-15T05:12:25;28.83;;;13.57;;
25846;SDS011;13676;50.168;8.568;2022-12-15T05:15:09;25.90;;;13.90;;
25846;SDS011;13676;50.168;8.568;2022-12-15T05:17:53;28.58;;;15.98;;
25846;SDS011;13676;50.168;8.568;2022-12-15T05:20:37;34.70;;;19.27;;
25846;SDS011;13676;50.168;8.568;2022-12-15T05:23:21;37.80;;;19.58;;
25846;SDS011;13676;50.168;8.568;2022-12-15T05:26:05;40.42;;;21.05;;
25846;SDS011;13676;50.168;8.568;2022-12-15T05:28:49;33.50;;;18.83;;
25846;SDS011;13676;50.168;8.568;2022-12-15T05:31:33;33.35;;;18.77;;
25846;SDS011;13676;50.168;8.568;2022-12-15T05:34:16;45.50;;;20.55;;
25846;SDS011;13676;50.168;8.568;2022-12-15T05:36:55;41.78;;;20.23;;
25846;SDS011;13676;50.168;8.568;2022-12-15T05:39:22;45.67;;;21.85;;
25846;SDS011;13676;50.168;8.568;2022-12-15T05:41:48;35.80;;;19.27;;
25846;SDS011;13676;50.168;8.568;2022-12-15T05:44:14;38.20;;;19.95;;
25846;SDS011;13676;50.168;8.568;2022-12-15T05:46:39;40.30;;;19.80;;
25846;SDS011;13676;50.168;8.568;2022-12-15T05:49:05;39.58;;;21.08;;
25846;SDS011;13676;50.168;8.568;2022-12-15T05:51:32;35.35;;;20.23;;
25846;SDS011;13676;50.168;8.568;2022-12-15T05:53:58;45.85;;;22.83;;
25846;SDS011;13676;50.168;8.568;2022-12-15T05:56:23;46.97;;;22.45;;
25846;SDS011;13676;50.168;8.568;2022-12-15T05:58:49;40.30;;;21.75;;
25846;SDS011;13676;50.168;8.568;2022-12-15T06:01:15;36.58;;;20.42;;
25846;SDS011;13676;50.168;8.568;2022-12-15T06:03:42;42.38;;;22.88;;
25846;SDS011;13676;50.168;8.568;2022-12-15T06:06:08;39.22;;;20.40;;
25846;SDS011;13676;50.168;8.568;2022-12-15T06:08:34;41.35;;;21.35;;
25846;SDS011;13676;50.168;8.568;2022-12-15T06:11:00;32.07;;;15.63;;
25846;SDS011;13676;50.168;8.568;2022-12-15T06:13:27;45.92;;;22.42;;
25846;SDS011;13676;50.168;8.568;2022-12-15T06:15:56;50.03;;;25.13;;
25846;SDS011;13676;50.168;8.568;2022-12-15T06:18:22;52.65;;;27.05;;
25846;SDS011;13676;50.168;8.568;2022-12-15T06:20:48;55.58;;;29.77;;
25846;SDS011;13676;50.168;8.568;2022-12-15T06:23:14;57.47;;;26.05;;
25846;SDS011;13676;50.168;8.568;2022-12-15T06:25:39;55.88;;;28.73;;
25846;SDS011;13676;50.168;8.568;2022-12-15T06:28:05;51.55;;;26.90;;
25846;SDS011;13676;50.168;8.568;2022-12-15T06:30:30;49.63;;;26.83;;
25846;SDS011;13676;50.168;8.568;2022-12-15T06:32:58;54.80;;;29.25;;
25846;SDS011;13676;50.168;8.568;2022-12-15T06:35:24;54.60;;;28.90;;
25846;SDS011;13676;50.168;8.568;2022-12-15T06:37:49;51.28;;;27.88;;
25846;SDS011;13676;50.168;8.568;2022-12-15T06:40:14;52.95;;;28.27;;
25846;SDS011;13676;50.168;8.568;2022-12-15T06:42:40;62.83;;;34.15;;
25846;SDS011;13676;50.168;8.568;2022-12-15T06:45:05;54.08;;;28.42;;
25846;SDS011;13676;50.168;8.568;2022-12-15T06:47:32;46.53;;;24.75;;
25846;SDS011;13676;50.168;8.568;2022-12-15T06:49:57;47.55;;;26.58;;
25846;SDS011;13676;50.168;8.568;2022-12-15T06:52:23;47.85;;;27.55;;
25846;SDS011;13676;50.168;8.568;2022-12-15T06:54:48;53.45;;;26.65;;
25846;SDS011;13676;50.168;8.568;2022-12-15T06:57:13;50.13;;;26.13;;
25846;SDS011;13676;50.168;8.568;2022-12-15T06:59:39;53.30;;;29.25;;
25846;SDS011;13676;50.168;8.568;2022-12-15T07:02:05;45.58;;;26.17;;
25846;SDS011;13676;50.168;8.568;2022-12-15T07:04:31;51.53;;;28.63;;
25846;SDS011;13676;50.168;8.568;2022-12-15T07:06:57;51.85;;;28.17;;
25846;SDS011;13676;50.168;8.568;2022-12-15T07:09:23;44.28;;;24.48;;
25846;SDS011;13676;50.168;8.568;2022-12-15T07:11:50;48.33;;;25.67;;
25846;SDS011;13676;50.168;8.568;2022-12-15T07:14:16;45.67;;;25.60;;
25846;SDS011;13676;50.168;8.568;2022-12-15T07:16:41;43.40;;;24.35;;
25846;SDS011;13676;50.168;8.568;2022-12-15T07:19:08;46.70;;;26.00;;
25846;SDS011;13676;50.168;8.568;2022-12-15T07:21:35;48.45;;;25.58;;
25846;SDS011;13676;50.168;8.568;2022-12-15T07:24:00;40.60;;;22.95;;
25846;SDS011;13676;50.168;8.568;2022-12-15T07:26:26;45.92;;;25.65;;
25846;SDS011;13676;50.168;8.568;2022-12-15T07:28:51;46.95;;;24.77;;
25846;SDS011;13676;50.168;8.568;2022-12-15T07:31:17;46.47;;;26.40;;
25846;SDS011;13676;50.168;8.568;2022-12-15T07:33:42;48.90;;;27.67;;
25846;SDS011;13676;50.168;8.568;2022-12-15T07:36:08;48.65;;;27.67;;
25846;SDS011;13676;50.168;8.568;2022-12-15T07:38:33;50.42;;;27.40;;
25846;SDS011;13676;50.168;8.568;2022-12-15T07:41:00;50.85;;;28.83;;
25846;SDS011;13676;50.168;8.568;2022-12-15T07:43:27;49.55;;;25.98;;
25846;SDS011;13676;50.168;8.568;2022-12-15T07:45:53;48.72;;;25.77;;
25846;SDS011;13676;50.168;8.568;2022-12-15T07:48:19;51.75;;;28.02;;
25846;SDS011;13676;50.168;8.568;2022-12-15T07:50:44;48.42;;;28.73;;
25846;SDS011;13676;50.168;8.568;2022-12-15T07:53:10;57.05;;;28.75;;
25846;SDS011;13676;50.168;8.568;2022-12-15T07:55:35;53.75;;;28.60;;
25846;SDS011;13676;50.168;8.568;2022-12-15T07:58:01;50.58;;;28.15;;
25846;SDS011;13676;50.168;8.568;2022-12-15T08:00:26;44.83;;;25.25;;
25846;SDS011;13676;50.168;8.568;2022-12-15T08:02:52;47.78;;;26.15;;
25846;SDS011;13676;50.168;8.568;2022-12-15T08:05:19;58.05;;;33.47;;
25846;SDS011;13676;50.168;8.568;2022-12-15T08:07:44;50.25;;;27.25;;
25846;SDS011;13676;50.168;8.568;2022-12-15T08:10:10;49.53;;;28.88;;
25846;SDS011;13676;50.168;8.568;2022-12-15T08:12:36;47.92;;;28.08;;
25846;SDS011;13676;50.168;8.568;2022-12-15T08:15:01;47.10;;;25.33;;
25846;SDS011;13676;50.168;8.568;2022-12-15T08:17:27;40.60;;;24.20;;
25846;SDS011;13676;50.168;8.568;2022-12-15T08:19:53;50.70;;;27.77;;
25846;SDS011;13676;50.168;8.568;2022-12-15T08:22:18;48.53;;;26.48;;
25846;SDS011;13676;50.168;8.568;2022-12-15T08:24:44;53.78;;;27.85;;
25846;SDS011;13676;50.168;8.568;2022-12-15T08:27:09;52.95;;;28.23;;
25846;SDS011;13676;50.168;8.568;2022-12-15T08:29:34;54.65;;;29.42;;
25846;SDS011;13676;50.168;8.568;2022-12-15T08:32:00;46.85;;;26.45;;
25846;SDS011;13676;50.168;8.568;2022-12-15T08:34:25;49.10;;;26.73;;
25846;SDS011;13676;50.168;8.568;2022-12-15T08:36:51;51.47;;;26.63;;
25846;SDS011;13676;50.168;8.568;2022-12-15T08:39:16;50.42;;;29.15;;
25846;SDS011;13676;50.168;8.568;2022-12-15T08:41:42;50.65;;;26.98;;
25846;SDS011;13676;50.168;8.568;2022-12-15T08:44:07;45.60;;;25.65;;
25846;SDS011;13676;50.168;8.568;2022-12-15T08:46:33;43.25;;;26.02;;
25846;SDS011;13676;50.168;8.568;2022-12-15T08:48:59;40.35;;;23.98;;
25846;SDS011;13676;50.168;8.568;2022-12-15T08:51:26;39.30;;;22.23;;
25846;SDS011;13676;50.168;8.568;2022-12-15T08:53:53;38.60;;;24.00;;
25846;SDS011;13676;50.168;8.568;2022-12-15T08:56:19;45.10;;;27.30;;
25846;SDS011;13676;50.168;8.568;2022-12-15T08:58:46;37.17;;;20.70;;
25846;SDS011;13676;50.168;8.568;2022-12-15T09:01:14;50.55;;;29.08;;
25846;SDS011;13676;50.168;8.568;2022-12-15T09:03:41;51.03;;;29.25;;
25846;SDS011;13676;50.168;8.568;2022-12-15T09:06:08;49.45;;;28.25;;
25846;SDS011;13676;50.168;8.568;2022-12-15T09:08:37;50.05;;;26.55;;
25846;SDS011;13676;50.168;8.568;2022-12-15T09:11:03;47.72;;;28.27;;
25846;SDS011;13676;50.168;8.568;2022-12-15T09:13:29;59.28;;;30.02;;
25846;SDS011;13676;50.168;8.568;2022-12-15T09:15:56;54.42;;;30.45;;
25846;SDS011;13676;50.168;8.568;2022-12-15T09:18:25;53.95;;;30.02;;
25846;SDS011;13676;50.168;8.568;2022-12-15T09:20:51;56.03;;;31.67;;
25846;SDS011;13676;50.168;8.568;2022-12-15T09:23:16;50.90;;;27.90;;
25846;SDS011;13676;50.168;8.568;2022-12-15T09:25:41;49.63;;;27.92;;
25846;SDS011;13676;50.168;8.568;2022-12-15T09:28:07;52.33;;;29.00;;
25846;SDS011;13676;50.168;8.568;2022-12-15T09:30:33;54.95;;;31.13;;
25846;SDS011;13676;50.168;8.568;2022-12-15T09:32:58;48.70;;;30.13;;
25846;SDS011;13676;50.168;8.568;2022-12-15T09:35:26;48.17;;;28.92;;
25846;SDS011;13676;50.168;8.568;2022-12-15T09:37:52;47.95;;;27.83;;
25846;SDS011;13676;50.168;8.568;2022-12-15T09:40:18;55.35;;;30.35;;
25846;SDS011;13676;50.168;8.568;2022-12-15T09:42:44;58.50;;;32.60;;
25846;SDS011;13676;50.168;8.568;2022-12-15T09:45:20;63.78;;;35.35;;
25846;SDS011;13676;50.168;8.568;2022-12-15T09:48:05;61.58;;;34.10;;
25846;SDS011;13676;50.168;8.568;2022-12-15T09:50:36;61.47;;;34.78;;
25846;SDS011;13676;50.168;8.568;2022-12-15T09:53:03;59.28;;;33.22;;
25846;SDS011;13676;50.168;8.568;2022-12-15T09:55:30;59.70;;;34.03;;
25846;SDS011;13676;50.168;8.568;2022-12-15T10:01:16;56.45;;;32.08;;
25846;SDS011;13676;50.168;8.568;2022-12-15T10:06:42;55.20;;;30.83;;
25846;SDS011;13676;50.168;8.568;2022-12-15T10:09:20;56.00;;;30.50;;
25846;SDS011;13676;50.168;8.568;2022-12-15T10:11:53;55.25;;;31.42;;
25846;SDS011;13676;50.168;8.568;2022-12-15T10:14:24;55.92;;;32.80;;
25846;SDS011;13676;50.168;8.568;2022-12-15T10:17:06;56.13;;;33.20;;
25846;SDS011;13676;50.168;8.568;2022-12-15T10:22:20;61.33;;;33.53;;
25846;SDS011;13676;50.168;8.568;2022-12-15T10:24:48;57.05;;;31.30;;
25846;SDS011;13676;50.168;8.568;2022-12-15T10:30:01;52.28;;;29.38;;
25846;SDS011;13676;50.168;8.568;2022-12-15T10:32:38;46.30;;;26.83;;
25846;SDS011;13676;50.168;8.568;2022-12-15T10:35:13;50.42;;;28.23;;
25846;SDS011;13676;50.168;8.568;2022-12-15T10:37:40;47.53;;;27.05;;
25846;SDS011;13676;50.168;8.568;2022-12-15T10:40:06;48.67;;;27.95;;
25846;SDS011;13676;50.168;8.568;2022-12-15T10:42:32;51.25;;;28.65;;
25846;SDS011;13676;50.168;8.568;2022-12-15T10:45:27;51.60;;;28.50;;
25846;SDS011;13676;50.168;8.568;2022-12-15T10:47:57;45.40;;;26.33;;
25846;SDS011;13676;50.168;8.568;2022-12-15T10:50:24;46.83;;;28.05;;
25846;SDS011;13676;50.168;8.568;2022-12-15T10:52:49;50.20;;;28.05;;
25846;SDS011;13676;50.168;8.568;2022-12-15T10:58:43;50.28;;;27.55;;
25846;SDS011;13676;50.168;8.568;2022-12-15T11:01:08;48.10;;;27.17;;
25846;SDS011;13676;50.168;8.568;2022-12-15T11:03:40;60.63;;;32.15;;
25846;SDS011;13676;50.168;8.568;2022-12-15T11:06:16;50.10;;;28.17;;
25846;SDS011;13676;50.168;8.568;2022-12-15T11:11:47;62.85;;;35.72;;
25846;SDS011;13676;50.168;8.568;2022-12-15T11:14:40;62.80;;;35.35;;
25846;SDS011;13676;50.168;8.568;2022-12-15T11:17:18;59.83;;;33.28;;
25846;SDS011;13676;50.168;8.568;2022-12-15T11:27:54;62.08;;;35.55;;
25846;SDS011;13676;50.168;8.568;2022-12-15T11:30:22;60.85;;;34.72;;
25846;SDS011;13676;50.168;8.568;2022-12-15T11:32:50;58.53;;;31.60;;
25846;SDS011;13676;50.168;8.568;2022-12-15T11:35:19;57.30;;;32.08;;
25846;SDS011;13676;50.168;8.568;2022-12-15T11:38:31;64.53;;;37.72;;
25846;SDS011;13676;50.168;8.568;2022-12-15T11:40:44;67.38;;;34.55;;
25846;SDS011;13676;50.168;8.568;2022-12-15T11:43:16;60.65;;;33.08;;
25846;SDS011;13676;50.168;8.568;2022-12-15T11:51:27;64.35;;;35.22;;
25846;SDS011;13676;50.168;8.568;2022-12-15T11:53:58;67.05;;;36.20;;
25846;SDS011;13676;50.168;8.568;2022-12-15T12:07:57;68.85;;;35.83;;
25846;SDS011;13676;50.168;8.568;2022-12-15T12:16:34;76.38;;;37.95;;
25846;SDS011;13676;50.168;8.568;2022-12-15T12:19:18;65.47;;;36.63;;
25846;SDS011;13676;50.168;8.568;2022-12-15T12:21:49;65.15;;;36.03;;
25846;SDS011;13676;50.168;8.568;2022-12-15T12:24:22;60.05;;;34.10;;
25846;SDS011;13676;50.168;8.568;2022-12-15T12:29:33;61.22;;;35.63;;
25846;SDS011;13676;50.168;8.568;2022-12-15T12:34:34;89.95;;;46.63;;
25846;SDS011;13676;50.168;8.568;2022-12-15T12:40:02;73.47;;;39.28;;
25846;SDS011;13676;50.168;8.568;2022-12-15T12:42:39;68.57;;;38.25;;
25846;SDS011;13676;50.168;8.568;2022-12-15T12:48:21;68.10;;;38.67;;
25846;SDS011;13676;50.168;8.568;2022-12-15T12:50:49;72.45;;;40.70;;
25846;SDS011;13676;50.168;8.568;2022-12-15T12:53:23;65.82;;;38.50;;
25846;SDS011;13676;50.168;8.568;2022-12-15T12:55:54;73.90;;;39.10;;
25846;SDS011;13676;50.168;8.568;2022-12-15T13:03:37;67.40;;;36.67;;
25846;SDS011;13676;50.168;8.568;2022-12-15T13:06:18;71.10;;;38.13;;
25846;SDS011;13676;50.168;8.568;2022-12-15T13:11:59;66.43;;;37.47;;
25846;SDS011;13676;50.168;8.568;2022-12-15T13:14:43;65.75;;;37.85;;
25846;SDS011;13676;50.168;8.568;2022-12-15T13:17:12;68.85;;;37.22;;
25846;SDS011;13676;50.168;8.568;2022-12-15T13:22:35;70.20;;;38.20;;
25846;SDS011;13676;50.168;8.568;2022-12-15T13:25:20;71.47;;;39.00;;
25846;SDS011;13676;50.168;8.568;2022-12-15T13:27:51;65.55;;;35.65;;
25846;SDS011;13676;50.168;8.568;2022-12-15T13:30:17;62.38;;;35.75;;
25846;SDS011;13676;50.168;8.568;2022-12-15T13:32:44;65.03;;;37.08;;
25846;SDS011;13676;50.168;8.568;2022-12-15T13:37:49;58.15;;;33.45;;
25846;SDS011;13676;50.168;8.568;2022-12-15T13:40:28;69.55;;;35.95;;
25846;SDS011;13676;50.168;8.568;2022-12-15T13:48:29;64.50;;;35.90;;
25846;SDS011;13676;50.168;8.568;2022-12-15T13:51:04;62.35;;;34.72;;
25846;SDS011;13676;50.168;8.568;2022-12-15T13:53:45;66.93;;;35.58;;
25846;SDS011;13676;50.168;8.568;2022-12-15T13:58:45;59.83;;;32.92;;
25846;SDS011;13676;50.168;8.568;2022-12-15T14:01:20;57.53;;;33.30;;
25846;SDS011;13676;50.168;8.568;2022-12-15T14:03:56;60.55;;;35.03;;
25846;SDS011;13676;50.168;8.568;2022-12-15T14:06:21;59.17;;;35.42;;
25846;SDS011;13676;50.168;8.568;2022-12-15T14:08:47;60.38;;;34.05;;
25846;SDS011;13676;50.168;8.568;2022-12-15T14:11:16;59.28;;;34.30;;
25846;SDS011;13676;50.168;8.568;2022-12-15T14:13:46;54.13;;;32.70;;
25846;SDS011;13676;50.168;8.568;2022-12-15T14:18:48;55.30;;;32.83;;
25846;SDS011;13676;50.168;8.568;2022-12-15T14:21:28;60.13;;;33.53;;
25846;SDS011;13676;50.168;8.568;2022-12-15T14:23:54;55.50;;;31.60;;
25846;SDS011;13676;50.168;8.568;2022-12-15T14:26:25;56.78;;;34.70;;
25846;SDS011;13676;50.168;8.568;2022-12-15T14:29:03;52.33;;;30.17;;
25846;SDS011;13676;50.168;8.568;2022-12-15T14:31:32;55.63;;;31.80;;
25846;SDS011;13676;50.168;8.568;2022-12-15T14:33:59;56.70;;;33.50;;
25846;SDS011;13676;50.168;8.568;2022-12-15T14:36:27;55.05;;;32.10;;
25846;SDS011;13676;50.168;8.568;2022-12-15T14:38:54;59.03;;;34.92;;
25846;SDS011;13676;50.168;8.568;2022-12-15T14:41:26;58.42;;;33.40;;
25846;SDS011;13676;50.168;8.568;2022-12-15T14:43:54;62.75;;;34.97;;
25846;SDS011;13676;50.168;8.568;2022-12-15T14:46:23;60.78;;;34.90;;
25846;SDS011;13676;50.168;8.568;2022-12-15T14:48:53;60.13;;;35.15;;
25846;SDS011;13676;50.168;8.568;2022-12-15T14:51:20;60.78;;;34.85;;
25846;SDS011;13676;50.168;8.568;2022-12-15T14:53:47;58.30;;;32.90;;
25846;SDS011;13676;50.168;8.568;2022-12-15T14:56:19;58.13;;;34.20;;
25846;SDS011;13676;50.168;8.568;2022-12-15T14:58:58;58.08;;;33.85;;
25846;SDS011;13676;50.168;8.568;2022-12-15T15:04:03;64.20;;;37.10;;
25846;SDS011;13676;50.168;8.568;2022-12-15T15:06:34;54.97;;;33.67;;
25846;SDS011;13676;50.168;8.568;2022-12-15T15:11:50;60.85;;;36.17;;
25846;SDS011;13676;50.168;8.568;2022-12-15T15:19:36;84.18;;;47.70;;
25846;SDS011;13676;50.168;8.568;2022-12-15T15:22:03;76.45;;;43.40;;
25846;SDS011;13676;50.168;8.568;2022-12-15T15:24:31;69.93;;;42.45;;
25846;SDS011;13676;50.168;8.568;2022-12-15T15:32:48;59.15;;;35.00;;
25846;SDS011;13676;50.168;8.568;2022-12-15T15:37:40;75.15;;;36.88;;
25846;SDS011;13676;50.168;8.568;2022-12-15T15:40:08;60.92;;;37.28;;
25846;SDS011;13676;50.168;8.568;2022-12-15T15:42:35;69.65;;;37.28;;
25846;SDS011;13676;50.168;8.568;2022-12-15T15:45:00;59.67;;;33.55;;
25846;SDS011;13676;50.168;8.568;2022-12-15T15:47:26;60.92;;;35.88;;
25846;SDS011;13676;50.168;8.568;2022-12-15T15:49:52;58.72;;;33.85;;
25846;SDS011;13676;50.168;8.568;2022-12-15T15:52:18;60.67;;;34.55;;
25846;SDS011;13676;50.168;8.568;2022-12-15T15:54:44;58.90;;;35.22;;
25846;SDS011;13676;50.168;8.568;2022-12-15T15:57:13;51.00;;;31.20;;
25846;SDS011;13676;50.168;8.568;2022-12-15T15:59:40;59.47;;;35.60;;
25846;SDS011;13676;50.168;8.568;2022-12-15T16:02:08;52.38;;;32.22;;
25846;SDS011;13676;50.168;8.568;2022-12-15T16:04:35;52.75;;;29.30;;
25846;SDS011;13676;50.168;8.568;2022-12-15T16:07:02;60.70;;;33.75;;
25846;SDS011;13676;50.168;8.568;2022-12-15T16:09:27;54.25;;;30.90;;
25846;SDS011;13676;50.168;8.568;2022-12-15T16:11:53;58.67;;;32.20;;
25846;SDS011;13676;50.168;8.568;2022-12-15T16:14:18;57.40;;;34.05;;
25846;SDS011;13676;50.168;8.568;2022-12-15T16:16:44;54.67;;;32.03;;
25846;SDS011;13676;50.168;8.568;2022-12-15T16:19:09;53.53;;;30.63;;
25846;SDS011;13676;50.168;8.568;2022-12-15T16:21:36;45.15;;;28.25;;
25846;SDS011;13676;50.168;8.568;2022-12-15T16:24:05;44.00;;;26.55;;
25846;SDS011;13676;50.168;8.568;2022-12-15T16:26:33;35.53;;;21.38;;
25846;SDS011;13676;50.168;8.568;2022-12-15T16:29:01;34.38;;;20.73;;
25846;SDS011;13676;50.168;8.568;2022-12-15T16:31:30;30.85;;;17.50;;
25846;SDS011;13676;50.168;8.568;2022-12-15T16:33:58;27.30;;;17.00;;
25846;SDS011;13676;50.168;8.568;2022-12-15T16:36:24;32.97;;;17.90;;
25846;SDS011;13676;50.168;8.568;2022-12-15T16:38:49;34.78;;;19.83;;
25846;SDS011;13676;50.168;8.568;2022-12-15T16:41:15;30.88;;;17.83;;
25846;SDS011;13676;50.168;8.568;2022-12-15T16:43:41;33.17;;;19.60;;
25846;SDS011;13676;50.168;8.568;2022-12-15T16:46:10;29.38;;;17.73;;
25846;SDS011;13676;50.168;8.568;2022-12-15T16:48:37;41.70;;;23.13;;
25846;SDS011;13676;50.168;8.568;2022-12-15T16:51:04;45.58;;;25.35;;
25846;SDS011;13676;50.168;8.568;2022-12-15T16:55:57;44.42;;;23.05;;
25846;SDS011;13676;50.168;8.568;2022-12-15T16:58:24;30.15;;;16.40;;